Upton, MA (01568)

3:49 PM EDT on May 22, 2015 (GMT -0400)
Lake Maspenock | | Change Station
CLOSE
Current Station
Personal Weather Station
Location: Hopkinton, MA
Elevation: 371 ft
Nearby Weather Stations

Elev 371 ft 42.20 °N, 71.56 °W | Updated 7 seconds ago

Partly Cloudy
Partly Cloudy
70.5 °F
Feels Like 74 °F
N
4.5
Wind Variable Wind from SE
Gusts 12.3 mph

Today
High -- | Low -- °F
--% Chance of Precip.
Yesterday
High -- | Low -- °F
Precip. -- in
5:19 AM 8:07 PM
Waxing Crescent, 23% visible
Pressure 29.83 in
Visibility 10.0 miles
Clouds Few 9000 ft
Heat Index 74 °F
Dew Point 28 °F
Humidity 20%
Rainfall 0.00 in
Snow Depth Not available.
UV 1.0 out of 12
Pollen 10.00 out of 12
Air Quality Not available.
Flu Activity Widespread
METAR KORH 221854Z 30021G31KT 10SM FEW090 21/M02 A2983 RMK AO2 PK WND 31031/1853 SLP102 T02111017

More Conditions Fewer Conditions

Pressure 29.83 in
Visibility 10.0 miles
Clouds Few 9000 ft
Heat Index 74 °F
Dew Point 28 °F
Humidity 20%
Rainfall 0.00 in
Snow Depth Not available.
UV 1.0 out of 12
Pollen 10.00 out of 12
Air Quality Not available.
Flu Activity Widespread
METAR KORH 221854Z 30021G31KT 10SM FEW090 21/M02 A2983 RMK AO2 PK WND 31031/1853 SLP102 T02111017

More Conditions Fewer Conditions

10-Day Weather Forecast

Almanac

Astronomy

May. 22, 2015 Rise Set
Actual Time
Civil Twilight
Nautical Twilight
Astronomical Twilight
Moon
Length of Visible Light
Length of Day
Tomorrow will be .
, % of the Moon is Illuminated

Today's Extremes

State Highs State Lows

Community

WunderPhotos

Upload Photos

1,823,279 photos uploaded!

WunderBlogs® & News

Nearby

Air Quality

  Air Quality AQ Index Pollutant
Not available.

Snow Depth

Station Depth Elevation

Earthquake Activity

City Distance Mag. Time & Date
Minimum magnitude displayed is 2.5.

Coastal Water Temperatures

Place Temperature

Stations

Nearby Weather Stations

Station Location Temp. Windchill Dew Point Humidity Wind Precip. Elev Updated Type